sensor_id;sensor_type;location;lat;lon;timestamp;pressure;altitude;pressure_sealevel;temperature;humidity
47753;BME280;2038;51.728;6.674;2023-06-14T00:01:09;100777.34;;;19.63;56.18
47753;BME280;2038;51.728;6.674;2023-06-14T00:03:35;100782.38;;;19.58;56.29
47753;BME280;2038;51.728;6.674;2023-06-14T00:06:01;100781.47;;;19.56;56.03
47753;BME280;2038;51.728;6.674;2023-06-14T00:08:27;100779.63;;;19.54;56.00
47753;BME280;2038;51.728;6.674;2023-06-14T00:10:54;100781.38;;;19.53;55.96
47753;BME280;2038;51.728;6.674;2023-06-14T00:13:20;100779.56;;;19.51;55.54
47753;BME280;2038;51.728;6.674;2023-06-14T00:15:46;100781.31;;;19.52;55.99
47753;BME280;2038;51.728;6.674;2023-06-14T00:18:13;100778.72;;;19.52;56.06
47753;BME280;2038;51.728;6.674;2023-06-14T00:20:40;100793.28;;;19.48;55.53
47753;BME280;2038;51.728;6.674;2023-06-14T00:23:08;100786.28;;;19.46;55.46
47753;BME280;2038;51.728;6.674;2023-06-14T00:25:34;100790.56;;;19.44;55.39
47753;BME280;2038;51.728;6.674;2023-06-14T00:28:00;100796.50;;;19.41;55.34
47753;BME280;2038;51.728;6.674;2023-06-14T00:30:27;100793.91;;;19.41;55.18
47753;BME280;2038;51.728;6.674;2023-06-14T00:32:56;100801.91;;;19.49;55.29
47753;BME280;2038;51.728;6.674;2023-06-14T00:35:23;100802.75;;;19.48;55.30
47753;BME280;2038;51.728;6.674;2023-06-14T00:37:49;100810.50;;;19.48;55.19
47753;BME280;2038;51.728;6.674;2023-06-14T00:40:16;100809.53;;;19.44;55.25
47753;BME280;2038;51.728;6.674;2023-06-14T00:42:42;100810.34;;;19.43;55.17
47753;BME280;2038;51.728;6.674;2023-06-14T00:45:09;100808.66;;;19.44;55.38
47753;BME280;2038;51.728;6.674;2023-06-14T00:47:37;100809.34;;;19.40;55.44
47753;BME280;2038;51.728;6.674;2023-06-14T00:50:07;100810.91;;;19.35;55.57
47753;BME280;2038;51.728;6.674;2023-06-14T00:52:34;100811.78;;;19.35;55.46
47753;BME280;2038;51.728;6.674;2023-06-14T00:55:01;100817.03;;;19.37;55.51
47753;BME280;2038;51.728;6.674;2023-06-14T00:57:28;100816.94;;;19.34;56.02
47753;BME280;2038;51.728;6.674;2023-06-14T00:59:55;100813.25;;;19.27;56.13
47753;BME280;2038;51.728;6.674;2023-06-14T01:02:22;100812.38;;;19.27;56.23
47753;BME280;2038;51.728;6.674;2023-06-14T01:04:49;100813.97;;;19.22;56.03
47753;BME280;2038;51.728;6.674;2023-06-14T01:10:27;100822.56;;;19.22;56.29
47753;BME280;2038;51.728;6.674;2023-06-14T01:13:21;100825.88;;;19.18;56.60
47753;BME280;2038;51.728;6.674;2023-06-14T01:15:53;100829.25;;;19.15;56.80
47753;BME280;2038;51.728;6.674;2023-06-14T01:18:21;100821.25;;;19.08;56.97
47753;BME280;2038;51.728;6.674;2023-06-14T01:20:50;100821.94;;;19.02;57.25
47753;BME280;2038;51.728;6.674;2023-06-14T01:23:20;100822.72;;;19.00;57.39
47753;BME280;2038;51.728;6.674;2023-06-14T01:25:49;100814.16;;;19.01;56.86
47753;BME280;2038;51.728;6.674;2023-06-14T01:28:19;100817.66;;;19.03;57.16
47753;BME280;2038;51.728;6.674;2023-06-14T01:30:51;100811.31;;;18.93;57.56
47753;BME280;2038;51.728;6.674;2023-06-14T01:33:22;100811.91;;;18.85;57.88
47753;BME280;2038;51.728;6.674;2023-06-14T01:35:52;100806.66;;;18.83;57.50
47753;BME280;2038;51.728;6.674;2023-06-14T01:38:24;100812.63;;;18.81;58.02
47753;BME280;2038;51.728;6.674;2023-06-14T01:40:52;100808.19;;;18.77;57.93
47753;BME280;2038;51.728;6.674;2023-06-14T01:43:21;100809.78;;;18.73;58.38
47753;BME280;2038;51.728;6.674;2023-06-14T01:45:50;100798.25;;;18.63;59.08
47753;BME280;2038;51.728;6.674;2023-06-14T01:48:19;100799.88;;;18.60;59.03
47753;BME280;2038;51.728;6.674;2023-06-14T01:50:45;100800.66;;;18.57;58.76
47753;BME280;2038;51.728;6.674;2023-06-14T01:53:13;100798.81;;;18.55;58.44
47753;BME280;2038;51.728;6.674;2023-06-14T01:55:39;100799.66;;;18.54;58.88
47753;BME280;2038;51.728;6.674;2023-06-14T01:58:09;100803.69;;;18.47;58.93
47753;BME280;2038;51.728;6.674;2023-06-14T02:00:36;100802.72;;;18.44;59.07
47753;BME280;2038;51.728;6.674;2023-06-14T02:03:03;100799.16;;;18.40;59.41
47753;BME280;2038;51.728;6.674;2023-06-14T02:05:32;100796.31;;;18.33;59.58
47753;BME280;2038;51.728;6.674;2023-06-14T02:07:58;100797.19;;;18.33;59.48
47753;BME280;2038;51.728;6.674;2023-06-14T02:10:24;100798.84;;;18.31;59.84
47753;BME280;2038;51.728;6.674;2023-06-14T02:12:50;100804.81;;;18.30;59.59
47753;BME280;2038;51.728;6.674;2023-06-14T02:15:17;100800.44;;;18.28;59.96
47753;BME280;2038;51.728;6.674;2023-06-14T02:17:47;100798.63;;;18.25;60.10
47753;BME280;2038;51.728;6.674;2023-06-14T02:20:15;100801.78;;;18.18;60.43
47753;BME280;2038;51.728;6.674;2023-06-14T02:22:41;100801.63;;;18.13;60.39
47753;BME280;2038;51.728;6.674;2023-06-14T02:25:08;100798.13;;;18.11;60.22
47753;BME280;2038;51.728;6.674;2023-06-14T02:27:35;100799.91;;;18.12;60.39
47753;BME280;2038;51.728;6.674;2023-06-14T02:30:01;100802.38;;;18.09;60.07
47753;BME280;2038;51.728;6.674;2023-06-14T02:32:28;100806.66;;;18.09;60.51
47753;BME280;2038;51.728;6.674;2023-06-14T02:34:54;100810.84;;;18.07;60.28
47753;BME280;2038;51.728;6.674;2023-06-14T02:37:20;100808.19;;;18.04;60.64
47753;BME280;2038;51.728;6.674;2023-06-14T02:39:47;100808.19;;;18.04;60.46
47753;BME280;2038;51.728;6.674;2023-06-14T02:42:13;100811.47;;;18.00;60.58
47753;BME280;2038;51.728;6.674;2023-06-14T02:44:40;100814.13;;;18.01;60.50
47753;BME280;2038;51.728;6.674;2023-06-14T02:47:06;100818.25;;;17.98;60.52
47753;BME280;2038;51.728;6.674;2023-06-14T02:49:32;100819.13;;;17.98;60.48
47753;BME280;2038;51.728;6.674;2023-06-14T02:51:59;100816.88;;;17.84;61.30
47753;BME280;2038;51.728;6.674;2023-06-14T02:54:25;100820.72;;;17.95;61.03
47753;BME280;2038;51.728;6.674;2023-06-14T02:56:52;100821.59;;;17.95;60.98
47753;BME280;2038;51.728;6.674;2023-06-14T02:59:18;100824.91;;;17.91;60.81
47753;BME280;2038;51.728;6.674;2023-06-14T03:01:45;100830.06;;;17.91;60.52
47753;BME280;2038;51.728;6.674;2023-06-14T03:04:12;100832.69;;;17.93;60.85
47753;BME280;2038;51.728;6.674;2023-06-14T03:06:38;100829.94;;;17.88;61.02
47753;BME280;2038;51.728;6.674;2023-06-14T03:09:05;100837.69;;;17.88;61.11
47753;BME280;2038;51.728;6.674;2023-06-14T03:11:32;100836.09;;;17.92;61.01
47753;BME280;2038;51.728;6.674;2023-06-14T03:13:59;100838.59;;;17.90;61.07
47753;BME280;2038;51.728;6.674;2023-06-14T03:16:25;100848.63;;;17.83;61.26
47753;BME280;2038;51.728;6.674;2023-06-14T03:18:54;100840.88;;;17.81;61.11
47753;BME280;2038;51.728;6.674;2023-06-14T03:21:21;100849.34;;;17.78;61.32
47753;BME280;2038;51.728;6.674;2023-06-14T03:23:48;100851.03;;;17.78;61.35
47753;BME280;2038;51.728;6.674;2023-06-14T03:26:15;100851.91;;;17.78;61.76
47753;BME280;2038;51.728;6.674;2023-06-14T03:28:44;100854.50;;;17.78;61.39
47753;BME280;2038;51.728;6.674;2023-06-14T03:31:12;100865.63;;;17.77;61.39
47753;BME280;2038;51.728;6.674;2023-06-14T03:33:39;100864.69;;;17.75;61.80
47753;BME280;2038;51.728;6.674;2023-06-14T03:36:06;100872.25;;;17.71;62.37
47753;BME280;2038;51.728;6.674;2023-06-14T03:38:33;100867.88;;;17.68;61.71
47753;BME280;2038;51.728;6.674;2023-06-14T03:40:59;100877.28;;;17.68;62.37
47753;BME280;2038;51.728;6.674;2023-06-14T03:43:26;100876.53;;;17.70;62.35
47753;BME280;2038;51.728;6.674;2023-06-14T03:45:53;100871.88;;;17.62;63.12
47753;BME280;2038;51.728;6.674;2023-06-14T03:48:19;100868.56;;;17.64;62.73
47753;BME280;2038;51.728;6.674;2023-06-14T03:50:45;100874.66;;;17.66;62.52
47753;BME280;2038;51.728;6.674;2023-06-14T03:53:11;100878.28;;;17.71;62.13
47753;BME280;2038;51.728;6.674;2023-06-14T03:55:38;100877.22;;;17.66;62.31
47753;BME280;2038;51.728;6.674;2023-06-14T03:58:05;100878.00;;;17.64;62.96
47753;BME280;2038;51.728;6.674;2023-06-14T04:00:31;100881.38;;;17.63;63.12
47753;BME280;2038;51.728;6.674;2023-06-14T04:02:58;100878.91;;;17.66;63.23
47753;BME280;2038;51.728;6.674;2023-06-14T04:05:25;100880.75;;;17.68;63.34
47753;BME280;2038;51.728;6.674;2023-06-14T04:07:52;100896.44;;;17.74;63.05
47753;BME280;2038;51.728;6.674;2023-06-14T04:10:21;100890.38;;;17.72;63.28
47753;BME280;2038;51.728;6.674;2023-06-14T04:12:47;100886.03;;;17.71;63.11
47753;BME280;2038;51.728;6.674;2023-06-14T04:15:14;100891.41;;;17.77;63.56
47753;BME280;2038;51.728;6.674;2023-06-14T04:17:40;100900.97;;;17.80;63.67
47753;BME280;2038;51.728;6.674;2023-06-14T04:20:08;100901.19;;;17.86;63.03
47753;BME280;2038;51.728;6.674;2023-06-14T04:22:35;100907.59;;;17.96;63.00
47753;BME280;2038;51.728;6.674;2023-06-14T04:25:02;100906.19;;;18.04;62.82
47753;BME280;2038;51.728;6.674;2023-06-14T04:27:29;100912.50;;;18.12;63.18
47753;BME280;2038;51.728;6.674;2023-06-14T04:29:57;100918.06;;;18.22;63.00
47753;BME280;2038;51.728;6.674;2023-06-14T04:32:25;100908.81;;;18.28;62.62
47753;BME280;2038;51.728;6.674;2023-06-14T04:34:58;100918.16;;;18.48;62.63
47753;BME280;2038;51.728;6.674;2023-06-14T04:37:28;100917.63;;;18.56;62.43
47753;BME280;2038;51.728;6.674;2023-06-14T04:39:56;100921.03;;;18.55;62.11
47753;BME280;2038;51.728;6.674;2023-06-14T04:42:23;100923.25;;;18.68;61.58
47753;BME280;2038;51.728;6.674;2023-06-14T04:44:51;100923.69;;;18.82;61.36
47753;BME280;2038;51.728;6.674;2023-06-14T04:47:21;100924.38;;;19.02;60.62
47753;BME280;2038;51.728;6.674;2023-06-14T04:49:47;100931.31;;;19.28;60.39
47753;BME280;2038;51.728;6.674;2023-06-14T04:52:14;100933.78;;;19.49;59.76
47753;BME280;2038;51.728;6.674;2023-06-14T04:54:41;100936.00;;;19.65;59.21
47753;BME280;2038;51.728;6.674;2023-06-14T04:57:11;100933.97;;;19.82;58.93
47753;BME280;2038;51.728;6.674;2023-06-14T04:59:43;100937.03;;;19.98;58.43
47753;BME280;2038;51.728;6.674;2023-06-14T05:02:11;100941.25;;;20.23;57.47
47753;BME280;2038;51.728;6.674;2023-06-14T05:04:37;100943.31;;;20.33;57.52
47753;BME280;2038;51.728;6.674;2023-06-14T05:07:07;100947.47;;;20.58;56.77
47753;BME280;2038;51.728;6.674;2023-06-14T05:09:35;100955.59;;;20.70;57.13
47753;BME280;2038;51.728;6.674;2023-06-14T05:12:02;100954.16;;;20.81;56.68
47753;BME280;2038;51.728;6.674;2023-06-14T05:14:29;100950.06;;;20.89;56.37
47753;BME280;2038;51.728;6.674;2023-06-14T05:16:55;100948.56;;;20.97;56.26
47753;BME280;2038;51.728;6.674;2023-06-14T05:19:23;100957.91;;;21.22;56.01
47753;BME280;2038;51.728;6.674;2023-06-14T05:21:49;100962.66;;;21.40;56.19
47753;BME280;2038;51.728;6.674;2023-06-14T05:24:15;100964.84;;;21.59;55.71
47753;BME280;2038;51.728;6.674;2023-06-14T05:26:43;100967.19;;;21.84;54.49
47753;BME280;2038;51.728;6.674;2023-06-14T05:29:10;100964.88;;;21.95;53.70
47753;BME280;2038;51.728;6.674;2023-06-14T05:31:36;100964.91;;;21.61;54.31
47753;BME280;2038;51.728;6.674;2023-06-14T05:34:02;100966.47;;;21.90;55.49
47753;BME280;2038;51.728;6.674;2023-06-14T05:36:29;100962.94;;;21.88;54.21
47753;BME280;2038;51.728;6.674;2023-06-14T05:38:55;100969.38;;;22.04;54.24
47753;BME280;2038;51.728;6.674;2023-06-14T05:41:28;100967.78;;;22.09;53.64
47753;BME280;2038;51.728;6.674;2023-06-14T05:43:55;100973.75;;;22.05;53.83
47753;BME280;2038;51.728;6.674;2023-06-14T05:46:23;100967.22;;;22.23;53.53
47753;BME280;2038;51.728;6.674;2023-06-14T05:48:54;100975.19;;;22.31;53.36
47753;BME280;2038;51.728;6.674;2023-06-14T05:51:21;100985.56;;;22.29;54.21
47753;BME280;2038;51.728;6.674;2023-06-14T05:53:50;100975.63;;;22.12;53.75
47753;BME280;2038;51.728;6.674;2023-06-14T05:56:18;100980.31;;;22.26;53.06
47753;BME280;2038;51.728;6.674;2023-06-14T05:58:45;100968.06;;;21.85;53.36
47753;BME280;2038;51.728;6.674;2023-06-14T06:01:12;100986.19;;;22.19;53.68
47753;BME280;2038;51.728;6.674;2023-06-14T06:03:39;100988.53;;;22.48;53.40
47753;BME280;2038;51.728;6.674;2023-06-14T06:06:05;100989.00;;;22.69;52.22
47753;BME280;2038;51.728;6.674;2023-06-14T06:08:33;100992.16;;;22.56;50.71
47753;BME280;2038;51.728;6.674;2023-06-14T06:10:59;100995.19;;;22.75;51.86
47753;BME280;2038;51.728;6.674;2023-06-14T06:13:26;100995.00;;;22.66;51.69
47753;BME280;2038;51.728;6.674;2023-06-14T06:15:52;101002.66;;;22.60;51.78
47753;BME280;2038;51.728;6.674;2023-06-14T06:18:18;100993.63;;;22.42;52.00
47753;BME280;2038;51.728;6.674;2023-06-14T06:20:45;100998.75;;;22.40;51.52
47753;BME280;2038;51.728;6.674;2023-06-14T06:23:12;100993.63;;;22.43;51.60
47753;BME280;2038;51.728;6.674;2023-06-14T06:25:39;101002.66;;;22.20;52.75
47753;BME280;2038;51.728;6.674;2023-06-14T06:28:05;101007.31;;;22.34;52.15
47753;BME280;2038;51.728;6.674;2023-06-14T06:30:32;101002.59;;;22.57;51.87
47753;BME280;2038;51.728;6.674;2023-06-14T06:32:58;101012.50;;;22.73;52.56
47753;BME280;2038;51.728;6.674;2023-06-14T06:35:25;101012.66;;;22.81;50.55
47753;BME280;2038;51.728;6.674;2023-06-14T06:37:51;101013.22;;;22.68;50.56
47753;BME280;2038;51.728;6.674;2023-06-14T06:40:18;101017.28;;;22.55;51.06
47753;BME280;2038;51.728;6.674;2023-06-14T06:42:44;101012.47;;;22.72;50.88
47753;BME280;2038;51.728;6.674;2023-06-14T06:45:11;101017.16;;;22.49;50.79
47753;BME280;2038;51.728;6.674;2023-06-14T06:47:37;101026.19;;;22.68;51.96
47753;BME280;2038;51.728;6.674;2023-06-14T06:50:03;101026.03;;;22.60;50.16
47753;BME280;2038;51.728;6.674;2023-06-14T06:52:30;101035.25;;;22.85;50.99
47753;BME280;2038;51.728;6.674;2023-06-14T06:54:56;101025.06;;;22.94;50.60
47753;BME280;2038;51.728;6.674;2023-06-14T06:57:23;101031.13;;;22.95;50.04
47753;BME280;2038;51.728;6.674;2023-06-14T06:59:49;101028.97;;;23.17;50.02
47753;BME280;2038;51.728;6.674;2023-06-14T07:02:16;101036.13;;;23.29;50.71
47753;BME280;2038;51.728;6.674;2023-06-14T07:04:42;101038.44;;;23.15;50.05
47753;BME280;2038;51.728;6.674;2023-06-14T07:07:09;101040.44;;;23.27;50.06
47753;BME280;2038;51.728;6.674;2023-06-14T07:09:37;101044.44;;;23.10;50.23
47753;BME280;2038;51.728;6.674;2023-06-14T07:12:04;101037.50;;;23.10;50.68
47753;BME280;2038;51.728;6.674;2023-06-14T07:14:31;101029.84;;;23.18;49.95
47753;BME280;2038;51.728;6.674;2023-06-14T07:16:57;101038.16;;;23.00;49.88
47753;BME280;2038;51.728;6.674;2023-06-14T07:19:23;101043.50;;;23.08;49.47
47753;BME280;2038;51.728;6.674;2023-06-14T07:21:49;101045.16;;;23.04;49.74
47753;BME280;2038;51.728;6.674;2023-06-14T07:24:16;101054.84;;;23.11;49.80
47753;BME280;2038;51.728;6.674;2023-06-14T07:26:42;101043.50;;;23.06;49.21
47753;BME280;2038;51.728;6.674;2023-06-14T07:29:08;101045.63;;;23.27;50.17
47753;BME280;2038;51.728;6.674;2023-06-14T07:31:34;101045.19;;;23.49;50.23
47753;BME280;2038;51.728;6.674;2023-06-14T07:34:00;101046.38;;;23.66;49.42
47753;BME280;2038;51.728;6.674;2023-06-14T07:36:27;101046.38;;;23.66;49.53
47753;BME280;2038;51.728;6.674;2023-06-14T07:38:53;101046.13;;;23.53;48.13
47753;BME280;2038;51.728;6.674;2023-06-14T07:41:19;101049.63;;;23.55;49.28
47753;BME280;2038;51.728;6.674;2023-06-14T07:43:46;101048.81;;;23.57;48.65
47753;BME280;2038;51.728;6.674;2023-06-14T07:46:12;101051.78;;;23.80;49.26
47753;BME280;2038;51.728;6.674;2023-06-14T07:48:38;101053.94;;;24.05;48.45
47753;BME280;2038;51.728;6.674;2023-06-14T07:51:05;101055.75;;;24.09;48.75
47753;BME280;2038;51.728;6.674;2023-06-14T07:53:31;101053.94;;;24.05;48.57
47753;BME280;2038;51.728;6.674;2023-06-14T07:55:57;101060.94;;;24.09;48.55
47753;BME280;2038;51.728;6.674;2023-06-14T07:58:24;101056.03;;;24.26;49.22
47753;BME280;2038;51.728;6.674;2023-06-14T08:00:50;101055.03;;;24.19;48.01
47753;BME280;2038;51.728;6.674;2023-06-14T08:03:17;101063.91;;;24.32;48.03
47753;BME280;2038;51.728;6.674;2023-06-14T08:05:44;101059.19;;;24.07;48.10
47753;BME280;2038;51.728;6.674;2023-06-14T08:08:10;101056.66;;;24.13;47.99
47753;BME280;2038;51.728;6.674;2023-06-14T08:10:36;101069.03;;;24.24;48.48
47753;BME280;2038;51.728;6.674;2023-06-14T08:13:02;101068.13;;;24.24;48.65
47753;BME280;2038;51.728;6.674;2023-06-14T08:15:29;101075.25;;;24.36;47.36
47753;BME280;2038;51.728;6.674;2023-06-14T08:17:55;101072.41;;;24.17;47.58
47753;BME280;2038;51.728;6.674;2023-06-14T08:20:22;101075.19;;;24.30;47.40
47753;BME280;2038;51.728;6.674;2023-06-14T08:22:48;101069.19;;;24.37;49.38
47753;BME280;2038;51.728;6.674;2023-06-14T08:25:14;101066.81;;;24.50;47.44
47753;BME280;2038;51.728;6.674;2023-06-14T08:27:40;101065.00;;;24.48;46.59
47753;BME280;2038;51.728;6.674;2023-06-14T08:30:07;101064.25;;;24.56;46.98
47753;BME280;2038;51.728;6.674;2023-06-14T08:32:34;101065.00;;;24.46;48.25
47753;BME280;2038;51.728;6.674;2023-06-14T08:35:00;101063.28;;;24.47;48.22
47753;BME280;2038;51.728;6.674;2023-06-14T08:37:26;101053.53;;;24.34;47.25
47753;BME280;2038;51.728;6.674;2023-06-14T08:39:53;101060.41;;;24.29;47.39
47753;BME280;2038;51.728;6.674;2023-06-14T08:42:19;101056.31;;;24.46;47.38
47753;BME280;2038;51.728;6.674;2023-06-14T08:44:47;101051.97;;;24.48;46.91
47753;BME280;2038;51.728;6.674;2023-06-14T08:47:15;101048.38;;;24.38;47.22
47753;BME280;2038;51.728;6.674;2023-06-14T08:49:46;101057.97;;;24.39;47.25
47753;BME280;2038;51.728;6.674;2023-06-14T08:52:14;101056.97;;;24.31;47.29
47753;BME280;2038;51.728;6.674;2023-06-14T08:54:46;101057.25;;;24.52;47.62
47753;BME280;2038;51.728;6.674;2023-06-14T08:57:14;101054.69;;;24.54;47.83
47753;BME280;2038;51.728;6.674;2023-06-14T08:59:46;101055.50;;;24.50;47.27
47753;BME280;2038;51.728;6.674;2023-06-14T09:02:15;101053.97;;;24.65;49.41
47753;BME280;2038;51.728;6.674;2023-06-14T09:04:43;101049.59;;;24.63;47.18
47753;BME280;2038;51.728;6.674;2023-06-14T09:07:11;101053.91;;;24.61;47.80
47753;BME280;2038;51.728;6.674;2023-06-14T09:09:41;101065.41;;;24.75;44.53
47753;BME280;2038;51.728;6.674;2023-06-14T09:12:16;101062.72;;;24.72;45.01
47753;BME280;2038;51.728;6.674;2023-06-14T09:14:42;101060.03;;;24.63;44.90
47753;BME280;2038;51.728;6.674;2023-06-14T09:17:09;101056.53;;;24.62;44.42
47753;BME280;2038;51.728;6.674;2023-06-14T09:19:39;101063.56;;;24.66;44.86
47753;BME280;2038;51.728;6.674;2023-06-14T09:22:05;101062.72;;;24.72;44.94
47753;BME280;2038;51.728;6.674;2023-06-14T09:24:31;101074.94;;;24.75;44.95
47753;BME280;2038;51.728;6.674;2023-06-14T09:26:58;101072.19;;;24.64;44.71
47753;BME280;2038;51.728;6.674;2023-06-14T09:29:24;101078.19;;;24.57;44.79
47753;BME280;2038;51.728;6.674;2023-06-14T09:31:51;101069.72;;;24.73;44.17
47753;BME280;2038;51.728;6.674;2023-06-14T09:34:17;101080.00;;;24.62;44.29
47753;BME280;2038;51.728;6.674;2023-06-14T09:36:46;101081.56;;;24.50;43.74
47753;BME280;2038;51.728;6.674;2023-06-14T09:39:17;101076.25;;;24.44;44.05
47753;BME280;2038;51.728;6.674;2023-06-14T09:41:44;101080.47;;;24.36;43.71
47753;BME280;2038;51.728;6.674;2023-06-14T09:44:11;101080.75;;;24.54;44.18
47753;BME280;2038;51.728;6.674;2023-06-14T09:46:40;101087.72;;;24.55;43.69
47753;BME280;2038;51.728;6.674;2023-06-14T09:49:06;101081.25;;;24.27;43.64
47753;BME280;2038;51.728;6.674;2023-06-14T09:51:34;101087.69;;;24.53;43.83
47753;BME280;2038;51.728;6.674;2023-06-14T09:54:04;101083.59;;;24.70;45.02
47753;BME280;2038;51.728;6.674;2023-06-14T09:56:37;101076.81;;;24.83;45.20
47753;BME280;2038;51.728;6.674;2023-06-14T09:59:13;101091.66;;;24.87;44.12
47753;BME280;2038;51.728;6.674;2023-06-14T10:01:44;101093.47;;;24.91;42.97
47753;BME280;2038;51.728;6.674;2023-06-14T10:04:12;101095.25;;;24.97;44.33
47753;BME280;2038;51.728;6.674;2023-06-14T10:06:43;101095.31;;;25.01;42.51
47753;BME280;2038;51.728;6.674;2023-06-14T10:09:14;101097.03;;;24.99;44.07
47753;BME280;2038;51.728;6.674;2023-06-14T10:11:40;101102.94;;;24.86;43.28
47753;BME280;2038;51.728;6.674;2023-06-14T10:14:10;101087.31;;;24.86;43.77
47753;BME280;2038;51.728;6.674;2023-06-14T10:19:34;101087.19;;;24.80;44.65
47753;BME280;2038;51.728;6.674;2023-06-14T10:22:14;101079.34;;;24.80;43.97
47753;BME280;2038;51.728;6.674;2023-06-14T10:24:46;101082.94;;;24.85;44.71
47753;BME280;2038;51.728;6.674;2023-06-14T10:27:14;101077.06;;;25.04;44.43
47753;BME280;2038;51.728;6.674;2023-06-14T10:32:25;101087.75;;;25.24;44.72
47753;BME280;2038;51.728;6.674;2023-06-14T10:35:01;101085.22;;;25.30;44.87
47753;BME280;2038;51.728;6.674;2023-06-14T10:37:31;101073.78;;;25.21;44.39
47753;BME280;2038;51.728;6.674;2023-06-14T10:39:58;101080.50;;;25.00;44.10
47753;BME280;2038;51.728;6.674;2023-06-14T10:42:31;101075.44;;;25.12;44.80
47753;BME280;2038;51.728;6.674;2023-06-14T10:44:58;101080.72;;;25.15;45.17
47753;BME280;2038;51.728;6.674;2023-06-14T10:50:08;101081.50;;;25.10;44.58
47753;BME280;2038;51.728;6.674;2023-06-14T10:52:40;101067.69;;;25.19;46.08
47753;BME280;2038;51.728;6.674;2023-06-14T10:55:15;101075.56;;;25.25;44.48
47753;BME280;2038;51.728;6.674;2023-06-14T10:57:48;101078.19;;;25.25;44.16
47753;BME280;2038;51.728;6.674;2023-06-14T11:00:19;101070.50;;;25.38;42.65
47753;BME280;2038;51.728;6.674;2023-06-14T11:06:14;101070.44;;;25.31;43.53
47753;BME280;2038;51.728;6.674;2023-06-14T11:08:57;101068.66;;;25.27;43.27
47753;BME280;2038;51.728;6.674;2023-06-14T11:11:42;101066.19;;;25.42;42.85
47753;BME280;2038;51.728;6.674;2023-06-14T11:14:10;101075.69;;;25.34;42.71
47753;BME280;2038;51.728;6.674;2023-06-14T11:16:37;101074.69;;;25.24;42.44
47753;BME280;2038;51.728;6.674;2023-06-14T11:19:03;101071.22;;;25.25;42.54
47753;BME280;2038;51.728;6.674;2023-06-14T11:21:31;101065.00;;;25.12;43.24
47753;BME280;2038;51.728;6.674;2023-06-14T11:23:59;101055.44;;;25.11;42.98
47753;BME280;2038;51.728;6.674;2023-06-14T11:26:32;101065.16;;;25.26;42.64
47753;BME280;2038;51.728;6.674;2023-06-14T11:29:01;101058.13;;;25.21;43.78
47753;BME280;2038;51.728;6.674;2023-06-14T11:31:28;101066.25;;;25.49;43.82
47753;BME280;2038;51.728;6.674;2023-06-14T11:33:55;101058.38;;;25.45;42.98
47753;BME280;2038;51.728;6.674;2023-06-14T11:36:27;101063.50;;;25.31;43.80
47753;BME280;2038;51.728;6.674;2023-06-14T11:39:00;101056.69;;;25.48;43.41
47753;BME280;2038;51.728;6.674;2023-06-14T11:41:44;101063.91;;;25.71;43.90
47753;BME280;2038;51.728;6.674;2023-06-14T11:44:11;101061.28;;;25.68;42.44
47753;BME280;2038;51.728;6.674;2023-06-14T11:46:38;101067.44;;;25.79;43.82
47753;BME280;2038;51.728;6.674;2023-06-14T11:49:06;101063.75;;;25.57;43.14
47753;BME280;2038;51.728;6.674;2023-06-14T11:51:34;101058.53;;;25.54;42.48
47753;BME280;2038;51.728;6.674;2023-06-14T11:54:02;101055.84;;;25.51;43.58
47753;BME280;2038;51.728;6.674;2023-06-14T11:56:31;101056.84;;;25.59;44.20
47753;BME280;2038;51.728;6.674;2023-06-14T11:58:58;101064.41;;;25.38;43.24
47753;BME280;2038;51.728;6.674;2023-06-14T12:01:24;101055.94;;;25.60;44.51
47753;BME280;2038;51.728;6.674;2023-06-14T12:03:53;101078.34;;;25.38;44.27
47753;BME280;2038;51.728;6.674;2023-06-14T12:06:27;101056.78;;;25.54;44.32
47753;BME280;2038;51.728;6.674;2023-06-14T12:09:06;101063.75;;;25.57;43.98
47753;BME280;2038;51.728;6.674;2023-06-14T12:11:38;101059.50;;;25.68;45.04
47753;BME280;2038;51.728;6.674;2023-06-14T12:14:05;101065.50;;;25.56;43.73
47753;BME280;2038;51.728;6.674;2023-06-14T12:16:37;101062.97;;;25.66;43.30
47753;BME280;2038;51.728;6.674;2023-06-14T12:19:13;101058.38;;;25.45;44.07
47753;BME280;2038;51.728;6.674;2023-06-14T12:21:42;101059.44;;;25.59;44.48
47753;BME280;2038;51.728;6.674;2023-06-14T12:24:13;101063.84;;;25.66;43.25
47753;BME280;2038;51.728;6.674;2023-06-14T12:26:40;101057.84;;;25.76;43.30
47753;BME280;2038;51.728;6.674;2023-06-14T12:29:07;101052.53;;;25.69;43.79
47753;BME280;2038;51.728;6.674;2023-06-14T12:31:34;101050.78;;;25.63;43.48
47753;BME280;2038;51.728;6.674;2023-06-14T12:34:00;101056.03;;;25.69;43.38
47753;BME280;2038;51.728;6.674;2023-06-14T12:36:27;101050.03;;;25.81;42.60
47753;BME280;2038;51.728;6.674;2023-06-14T12:38:53;101051.00;;;25.92;44.15
47753;BME280;2038;51.728;6.674;2023-06-14T12:41:21;101063.19;;;25.93;44.73
47753;BME280;2038;51.728;6.674;2023-06-14T12:43:48;101051.94;;;25.98;43.99
47753;BME280;2038;51.728;6.674;2023-06-14T12:46:14;101054.63;;;26.07;44.72
47753;BME280;2038;51.728;6.674;2023-06-14T12:48:40;101052.91;;;26.14;44.16
47753;BME280;2038;51.728;6.674;2023-06-14T12:51:07;101064.22;;;26.12;42.96
47753;BME280;2038;51.728;6.674;2023-06-14T12:53:33;101064.25;;;26.15;42.60
47753;BME280;2038;51.728;6.674;2023-06-14T12:55:59;101065.06;;;26.12;42.90
47753;BME280;2038;51.728;6.674;2023-06-14T12:58:25;101062.59;;;26.20;42.97
47753;BME280;2038;51.728;6.674;2023-06-14T13:00:51;101062.59;;;26.26;42.37
47753;BME280;2038;51.728;6.674;2023-06-14T13:03:18;101067.00;;;26.31;42.07
47753;BME280;2038;51.728;6.674;2023-06-14T13:05:44;101063.66;;;26.57;42.78
47753;BME280;2038;51.728;6.674;2023-06-14T13:08:10;101066.22;;;26.46;41.84
47753;BME280;2038;51.728;6.674;2023-06-14T13:10:37;101065.28;;;26.32;42.12
47753;BME280;2038;51.728;6.674;2023-06-14T13:13:03;101066.19;;;26.44;41.78
47753;BME280;2038;51.728;6.674;2023-06-14T13:15:30;101050.50;;;26.38;42.81
47753;BME280;2038;51.728;6.674;2023-06-14T13:17:56;101049.66;;;26.44;43.10